createdAt,value
2018-06-17T00:02:18.728Z,9.70
2018-06-17T00:04:47.205Z,9.65
2018-06-17T00:07:15.581Z,10.20
2018-06-17T00:09:44.072Z,10.83
2018-06-17T00:12:12.540Z,10.27
2018-06-17T00:14:40.935Z,11.00
2018-06-17T00:17:09.329Z,10.70
2018-06-17T00:19:37.777Z,10.77
2018-06-17T00:22:06.170Z,11.48
2018-06-17T00:24:34.634Z,11.03
2018-06-17T00:27:03.064Z,10.40
2018-06-17T00:29:31.433Z,10.37
2018-06-17T00:31:59.882Z,10.53
2018-06-17T00:34:28.272Z,11.20
2018-06-17T00:36:56.689Z,10.87
2018-06-17T00:39:25.102Z,11.27
2018-06-17T00:41:53.524Z,10.50
2018-06-17T00:44:21.929Z,11.00
2018-06-17T00:46:50.316Z,10.17
2018-06-17T00:49:18.685Z,9.73
2018-06-17T00:51:47.041Z,9.50
2018-06-17T00:54:15.403Z,8.33
2018-06-17T00:56:44.554Z,9.73
2018-06-17T00:59:12.956Z,8.87
2018-06-17T01:01:41.330Z,10.40
2018-06-17T01:04:09.780Z,10.00
2018-06-17T01:06:38.132Z,9.00
2018-06-17T01:09:06.758Z,9.57
2018-06-17T01:11:35.097Z,8.80
2018-06-17T01:14:07.752Z,8.73
2018-06-17T01:16:39.637Z,9.67
2018-06-17T01:19:11.129Z,10.03
2018-06-17T01:21:42.974Z,9.00
2018-06-17T01:24:15.271Z,9.90
2018-06-17T01:26:46.981Z,10.40
2018-06-17T01:29:18.520Z,10.00
2018-06-17T01:31:50.905Z,9.67
2018-06-17T01:34:19.254Z,10.17
2018-06-17T01:36:47.613Z,8.97
2018-06-17T01:39:15.968Z,9.23
2018-06-17T01:41:44.397Z,8.97
2018-06-17T01:44:12.831Z,9.90
2018-06-17T01:46:41.219Z,8.90
2018-06-17T01:49:09.529Z,10.67
2018-06-17T01:51:37.994Z,9.77
2018-06-17T01:54:06.386Z,9.10
2018-06-17T01:56:34.813Z,10.27
2018-06-17T01:59:03.254Z,10.50
2018-06-17T02:01:31.592Z,9.90
2018-06-17T02:04:05.199Z,10.40
2018-06-17T02:08:43.856Z,9.40
2018-06-17T02:11:17.570Z,8.60
2018-06-17T02:13:45.956Z,8.93
2018-06-17T02:16:14.294Z,9.30
2018-06-17T02:18:42.684Z,9.90
2018-06-17T02:21:11.085Z,9.07
2018-06-17T02:23:39.471Z,9.10
2018-06-17T02:26:07.860Z,10.10
2018-06-17T02:28:36.290Z,10.57
2018-06-17T02:31:04.693Z,10.55
2018-06-17T02:33:33.080Z,9.97
2018-06-17T02:36:01.513Z,8.83
2018-06-17T02:38:29.900Z,10.80
2018-06-17T02:40:58.290Z,9.70
2018-06-17T02:43:26.665Z,8.90
2018-06-17T02:48:02.359Z,10.20
2018-06-17T02:50:36.144Z,9.83
2018-06-17T02:53:09.911Z,10.07
2018-06-17T02:55:38.326Z,9.60
2018-06-17T02:58:06.685Z,9.80
2018-06-17T03:00:35.013Z,10.40
2018-06-17T03:03:03.442Z,10.00
2018-06-17T03:05:31.780Z,9.40
2018-06-17T03:08:00.217Z,8.83
2018-06-17T03:10:28.638Z,8.50
2018-06-17T03:12:57.125Z,6.97
2018-06-17T03:15:25.585Z,7.13
2018-06-17T03:17:53.985Z,6.80
2018-06-17T03:20:22.345Z,6.53
2018-06-17T03:22:50.746Z,8.13
2018-06-17T03:25:24.549Z,6.83
2018-06-17T03:27:58.226Z,6.00
2018-06-17T03:30:31.965Z,6.75
2018-06-17T03:33:05.634Z,6.55
2018-06-17T03:35:39.456Z,7.43
2018-06-17T03:38:07.832Z,5.47
2018-06-17T03:40:36.272Z,5.80
2018-06-17T03:43:04.672Z,6.43
2018-06-17T03:45:33.063Z,6.47
2018-06-17T03:48:01.488Z,6.40
2018-06-17T03:50:29.859Z,5.73
2018-06-17T03:52:58.242Z,5.50
2018-06-17T03:55:26.666Z,6.20
2018-06-17T03:57:55.108Z,6.90
2018-06-17T04:00:23.472Z,6.30
2018-06-17T04:02:51.921Z,6.10
2018-06-17T04:05:25.655Z,6.90
2018-06-17T04:07:54.008Z,5.80
2018-06-17T04:10:22.408Z,5.80
2018-06-17T04:12:50.789Z,5.90
2018-06-17T04:15:19.133Z,6.07
2018-06-17T04:17:47.514Z,5.25
2018-06-17T04:20:15.972Z,6.00
2018-06-17T04:22:44.356Z,5.80
2018-06-17T04:25:12.919Z,5.40
2018-06-17T04:27:41.308Z,4.80
2018-06-17T04:30:09.665Z,5.03
2018-06-17T04:32:38.040Z,6.13
2018-06-17T04:35:06.449Z,4.78
2018-06-17T04:37:34.950Z,6.20
2018-06-17T04:40:03.347Z,6.85
2018-06-17T04:42:31.768Z,5.00
2018-06-17T04:45:00.420Z,5.70
2018-06-17T04:47:28.821Z,5.30
2018-06-17T04:49:57.216Z,5.50
2018-06-17T04:52:25.683Z,6.03
2018-06-17T04:54:54.103Z,5.85
2018-06-17T04:57:22.451Z,5.10
2018-06-17T04:59:50.816Z,5.20
2018-06-17T05:02:19.162Z,5.47
2018-06-17T05:04:47.614Z,6.20
2018-06-17T05:07:16.097Z,4.73
2018-06-17T05:09:44.511Z,4.70
2018-06-17T05:12:12.931Z,4.97
2018-06-17T05:14:41.357Z,4.73
2018-06-17T05:17:09.767Z,4.37
2018-06-17T05:19:38.179Z,5.57
2018-06-17T05:22:06.511Z,5.60
2018-06-17T05:24:34.975Z,5.33
2018-06-17T05:27:03.426Z,5.67
2018-06-17T05:29:31.859Z,5.03
2018-06-17T05:32:00.256Z,5.87
2018-06-17T05:34:28.703Z,5.70
2018-06-17T05:36:57.082Z,5.13
2018-06-17T05:39:25.573Z,4.47
2018-06-17T05:41:54.009Z,4.70
2018-06-17T05:44:22.412Z,4.77
2018-06-17T05:46:50.794Z,5.10
2018-06-17T05:49:19.090Z,5.63
2018-06-17T05:51:47.490Z,5.10
2018-06-17T05:54:15.816Z,5.17
2018-06-17T05:56:44.206Z,5.07
2018-06-17T05:59:12.585Z,5.70
2018-06-17T06:01:41.002Z,5.40
2018-06-17T06:04:09.372Z,5.63
2018-06-17T06:06:37.735Z,5.42
2018-06-17T06:09:07.741Z,6.00
2018-06-17T06:11:36.090Z,5.87
2018-06-17T06:14:04.510Z,4.40
2018-06-17T06:16:32.924Z,5.33
2018-06-17T06:19:01.342Z,6.20
2018-06-17T06:21:29.684Z,6.03
2018-06-17T06:23:58.167Z,5.17
2018-06-17T06:26:26.518Z,5.35
2018-06-17T06:28:54.997Z,5.67
2018-06-17T06:31:23.457Z,5.23
2018-06-17T06:33:51.855Z,5.77
2018-06-17T06:36:20.327Z,5.40
2018-06-17T06:38:48.764Z,5.83
2018-06-17T06:41:17.162Z,5.67
2018-06-17T06:43:45.541Z,5.60
2018-06-17T06:46:13.906Z,4.93
2018-06-17T06:48:42.241Z,4.63
2018-06-17T06:51:10.801Z,5.93
2018-06-17T06:53:39.161Z,4.97
2018-06-17T06:56:07.702Z,5.70
2018-06-17T06:58:36.357Z,5.10
2018-06-17T07:01:04.826Z,4.80
2018-06-17T07:03:38.518Z,5.50
2018-06-17T07:06:12.239Z,5.40
2018-06-17T07:08:46.067Z,5.00
2018-06-17T07:11:14.457Z,5.30
2018-06-17T07:13:42.894Z,4.83
2018-06-17T07:16:16.667Z,5.30
2018-06-17T07:18:45.238Z,5.30
2018-06-17T07:21:13.739Z,4.90
2018-06-17T07:23:42.505Z,5.40
2018-06-17T07:26:27.832Z,4.90
2018-06-17T07:29:01.760Z,6.43
2018-06-17T07:31:30.179Z,5.97
2018-06-17T07:33:58.809Z,4.70
2018-06-17T07:36:27.322Z,5.43
2018-06-17T07:38:56.197Z,4.17
2018-06-17T07:41:24.621Z,4.90
2018-06-17T07:43:53.485Z,4.50
2018-06-17T07:46:21.941Z,4.20
2018-06-17T07:49:22.231Z,4.03
2018-06-17T07:51:56.173Z,5.70
2018-06-17T07:54:24.593Z,5.20
2018-06-17T07:56:53.558Z,5.27
2018-06-17T07:59:21.962Z,3.80
2018-06-17T08:01:50.345Z,3.90
2018-06-17T08:04:18.848Z,4.47
2018-06-17T08:06:47.344Z,4.57
2018-06-17T08:09:16.192Z,4.30
2018-06-17T08:11:44.713Z,3.30
2018-06-17T08:14:13.290Z,4.37
2018-06-17T08:16:41.941Z,3.50
2018-06-17T08:19:10.495Z,3.93
2018-06-17T08:21:38.910Z,3.70
2018-06-17T08:24:07.303Z,3.60
2018-06-17T08:26:35.868Z,3.57
2018-06-17T08:29:04.442Z,3.30
2018-06-17T08:31:32.925Z,3.30
2018-06-17T08:34:01.447Z,2.70
2018-06-17T08:36:30.081Z,2.70
2018-06-17T08:38:58.626Z,3.23
2018-06-17T08:41:27.367Z,3.20
2018-06-17T08:43:55.797Z,2.80
2018-06-17T08:46:24.483Z,2.87
2018-06-17T08:48:52.940Z,3.50
2018-06-17T08:51:21.396Z,3.20
2018-06-17T08:53:49.958Z,2.60
2018-06-17T08:56:18.424Z,2.40
2018-06-17T08:58:46.964Z,3.23
2018-06-17T09:01:15.484Z,3.30
2018-06-17T09:03:43.953Z,3.40
2018-06-17T09:06:12.304Z,2.97
2018-06-17T09:08:40.804Z,2.83
2018-06-17T09:11:09.220Z,2.70
2018-06-17T09:13:37.629Z,3.20
2018-06-17T09:16:06.060Z,2.60
2018-06-17T09:18:34.478Z,3.13
2018-06-17T09:21:03.092Z,3.27
2018-06-17T09:23:31.431Z,3.50
2018-06-17T09:25:59.913Z,3.17
2018-06-17T09:28:28.285Z,2.90
2018-06-17T09:30:56.728Z,2.70
2018-06-17T09:33:25.168Z,2.63
2018-06-17T09:35:53.597Z,2.93
2018-06-17T09:38:22.118Z,3.00
2018-06-17T09:40:50.619Z,2.47
2018-06-17T09:43:19.057Z,3.30
2018-06-17T09:45:47.439Z,3.10
2018-06-17T09:48:15.838Z,3.40
2018-06-17T09:50:44.274Z,3.13
2018-06-17T09:53:12.716Z,3.23
2018-06-17T09:55:41.350Z,2.80
2018-06-17T09:58:09.783Z,2.77
2018-06-17T10:00:38.214Z,2.80
2018-06-17T10:03:06.659Z,3.27
2018-06-17T10:05:35.169Z,3.53
2018-06-17T10:08:03.624Z,5.63
2018-06-17T10:10:41.231Z,3.77
2018-06-17T10:13:09.732Z,3.10
2018-06-17T10:15:38.242Z,2.37
2018-06-17T10:18:06.959Z,5.40
2018-06-17T10:20:35.471Z,3.70
2018-06-17T10:23:03.912Z,2.57
2018-06-17T10:25:32.817Z,3.00
2018-06-17T10:28:01.341Z,3.43
2018-06-17T10:30:29.878Z,2.60
2018-06-17T10:32:58.508Z,2.80
2018-06-17T10:35:26.949Z,2.87
2018-06-17T10:37:55.317Z,3.03
2018-06-17T10:40:23.711Z,3.00
2018-06-17T10:42:52.038Z,2.73
2018-06-17T10:45:20.466Z,2.80
2018-06-17T10:47:48.975Z,2.33
2018-06-17T10:50:17.426Z,3.03
2018-06-17T10:52:45.847Z,2.73
2018-06-17T10:55:14.914Z,2.40
2018-06-17T10:57:44.086Z,3.10
2018-06-17T11:00:12.486Z,2.67
2018-06-17T11:02:40.938Z,3.30
2018-06-17T11:05:09.632Z,3.90
2018-06-17T11:07:38.233Z,2.83
2018-06-17T11:10:07.225Z,3.17
2018-06-17T11:12:35.714Z,3.50
2018-06-17T11:15:04.269Z,3.27
2018-06-17T11:17:33.466Z,2.70
2018-06-17T11:20:01.815Z,2.80
2018-06-17T11:22:30.277Z,3.17
2018-06-17T11:24:58.667Z,3.00
2018-06-17T11:27:27.137Z,2.73
2018-06-17T11:29:55.496Z,2.87
2018-06-17T11:32:23.927Z,2.93
2018-06-17T11:34:52.380Z,3.00
2018-06-17T11:37:20.887Z,2.97
2018-06-17T11:39:49.438Z,3.40
2018-06-17T11:42:18.921Z,3.50
2018-06-17T11:44:47.382Z,2.67
2018-06-17T11:47:15.730Z,2.87
2018-06-17T11:49:44.346Z,3.00
2018-06-17T11:52:12.653Z,3.23
2018-06-17T11:54:41.107Z,3.30
2018-06-17T11:57:09.484Z,3.40
2018-06-17T11:59:37.894Z,3.53
2018-06-17T12:02:06.325Z,2.87
2018-06-17T12:04:34.763Z,3.33
2018-06-17T12:07:03.193Z,3.80
2018-06-17T12:09:31.705Z,3.07
2018-06-17T12:12:00.300Z,3.17
2018-06-17T12:14:28.789Z,2.70
2018-06-17T12:16:57.221Z,2.50
2018-06-17T12:19:25.734Z,3.07
2018-06-17T12:21:54.182Z,3.43
2018-06-17T12:24:22.612Z,2.87
2018-06-17T12:26:51.022Z,3.00
2018-06-17T12:29:19.454Z,3.20
2018-06-17T12:31:47.934Z,3.00
2018-06-17T12:34:16.388Z,3.40
2018-06-17T12:36:44.860Z,3.60
2018-06-17T12:39:14.000Z,3.60
2018-06-17T12:41:42.461Z,3.50
2018-06-17T12:44:10.857Z,3.17
2018-06-17T12:46:39.362Z,4.33
2018-06-17T12:49:07.814Z,3.33
2018-06-17T12:51:36.193Z,3.23
2018-06-17T12:54:04.658Z,3.90
2018-06-17T12:56:33.095Z,3.50
2018-06-17T12:59:01.438Z,3.10
2018-06-17T13:01:29.948Z,3.40
2018-06-17T13:03:58.612Z,3.83
2018-06-17T13:06:27.010Z,4.23
2018-06-17T13:08:55.512Z,3.40
2018-06-17T13:11:24.013Z,3.77
2018-06-17T13:13:52.654Z,4.97
2018-06-17T13:16:21.088Z,3.80
2018-06-17T13:18:49.623Z,3.40
2018-06-17T13:21:18.020Z,2.80
2018-06-17T13:23:46.460Z,2.90
2018-06-17T13:26:15.282Z,2.50
2018-06-17T13:28:43.899Z,2.60
2018-06-17T13:31:12.874Z,3.30
2018-06-17T13:33:41.416Z,2.90
2018-06-17T13:36:09.875Z,3.83
2018-06-17T13:38:38.416Z,2.83
2018-06-17T13:41:06.906Z,3.63
2018-06-17T13:43:35.341Z,3.37
2018-06-17T13:46:03.757Z,3.27
2018-06-17T13:48:32.103Z,2.80
2018-06-17T13:51:00.582Z,3.10
2018-06-17T13:53:29.028Z,4.10
2018-06-17T13:55:57.452Z,3.83
2018-06-17T13:58:25.804Z,2.93
2018-06-17T14:00:54.262Z,3.50
2018-06-17T14:03:22.656Z,3.47
2018-06-17T14:05:51.106Z,3.83
2018-06-17T14:08:19.553Z,3.60
2018-06-17T14:10:47.969Z,3.70
2018-06-17T14:13:16.593Z,3.80
2018-06-17T14:15:44.966Z,3.90
2018-06-17T14:18:13.380Z,4.10
2018-06-17T14:20:41.934Z,4.43
2018-06-17T14:23:10.370Z,3.33
2018-06-17T14:25:38.876Z,2.70
2018-06-17T14:28:07.294Z,2.57
2018-06-17T14:30:35.658Z,2.90
2018-06-17T14:33:04.049Z,3.00
2018-06-17T14:35:32.513Z,2.13
2018-06-17T14:38:00.973Z,3.40
2018-06-17T14:40:33.770Z,2.87
2018-06-17T14:43:07.640Z,3.00
2018-06-17T14:45:41.269Z,2.50
2018-06-17T14:48:14.982Z,2.97
2018-06-17T14:50:48.782Z,4.67
2018-06-17T14:53:17.267Z,3.23
2018-06-17T14:55:45.764Z,3.17
2018-06-17T14:58:14.178Z,2.90
2018-06-17T15:00:42.557Z,3.37
2018-06-17T15:03:11.041Z,3.07
2018-06-17T15:05:39.502Z,2.87
2018-06-17T15:08:07.909Z,3.00
2018-06-17T15:10:36.296Z,3.40
2018-06-17T15:13:04.711Z,2.47
2018-06-17T15:15:33.047Z,2.43
2018-06-17T15:18:01.632Z,2.70
2018-06-17T15:20:29.956Z,2.73
2018-06-17T15:22:58.384Z,2.20
2018-06-17T15:25:26.825Z,2.43
2018-06-17T15:27:55.261Z,3.57
2018-06-17T15:30:23.737Z,3.80
2018-06-17T15:32:57.384Z,3.50
2018-06-17T15:35:31.153Z,2.80
2018-06-17T15:38:04.730Z,3.07
2018-06-17T15:40:38.475Z,2.90
2018-06-17T15:43:06.970Z,2.93
2018-06-17T15:45:35.394Z,3.47
2018-06-17T15:48:03.818Z,2.97
2018-06-17T15:50:32.311Z,2.77
2018-06-17T15:53:00.604Z,3.40
2018-06-17T15:55:29.048Z,2.90
2018-06-17T15:57:57.660Z,2.97
2018-06-17T16:00:26.095Z,2.93
2018-06-17T16:02:54.532Z,4.20
2018-06-17T16:05:23.221Z,4.20
2018-06-17T16:07:52.205Z,3.70
2018-06-17T16:10:20.607Z,3.43
2018-06-17T16:12:54.377Z,3.03
2018-06-17T16:15:28.009Z,3.30
2018-06-17T16:18:01.779Z,2.73
2018-06-17T16:20:35.450Z,3.17
2018-06-17T16:23:03.889Z,3.47
2018-06-17T16:25:32.569Z,3.33
2018-06-17T16:28:01.053Z,3.20
2018-06-17T16:30:29.449Z,3.90
2018-06-17T16:32:57.932Z,3.27
2018-06-17T16:35:26.302Z,3.00
2018-06-17T16:37:54.690Z,3.90
2018-06-17T16:40:23.066Z,3.87
2018-06-17T16:42:51.513Z,2.87
2018-06-17T16:45:19.999Z,3.10
2018-06-17T16:47:48.497Z,3.53
2018-06-17T16:50:16.933Z,3.43
2018-06-17T16:52:50.777Z,4.10
2018-06-17T16:55:24.344Z,2.80
2018-06-17T16:57:58.098Z,3.17
2018-06-17T17:00:26.449Z,3.83
2018-06-17T17:02:54.865Z,3.00
2018-06-17T17:05:23.258Z,3.10
2018-06-17T17:07:51.644Z,3.20
2018-06-17T17:10:20.038Z,3.43
2018-06-17T17:12:48.534Z,2.90
2018-06-17T17:15:16.936Z,3.40
2018-06-17T17:17:45.291Z,2.90
2018-06-17T17:20:13.693Z,3.50
2018-06-17T17:22:42.148Z,4.30
2018-06-17T17:25:10.497Z,3.40
2018-06-17T17:27:38.942Z,3.83
2018-06-17T17:30:07.445Z,3.10
2018-06-17T17:32:41.239Z,2.77
2018-06-17T17:35:14.969Z,3.47
2018-06-17T17:37:48.555Z,3.53
2018-06-17T17:40:22.332Z,3.13
2018-06-17T17:42:51.013Z,3.23
2018-06-17T17:45:22.163Z,3.60
2018-06-17T17:47:50.610Z,3.30
2018-06-17T17:50:19.130Z,2.67
2018-06-17T17:52:47.599Z,2.97
2018-06-17T17:55:15.991Z,2.90
2018-06-17T17:57:44.437Z,3.53
2018-06-17T18:00:12.929Z,3.40
2018-06-17T18:02:41.293Z,3.67
2018-06-17T18:05:09.689Z,3.63
2018-06-17T18:07:38.076Z,2.93
2018-06-17T18:10:06.472Z,3.60
2018-06-17T18:12:34.830Z,2.67
2018-06-17T18:15:03.262Z,3.20
2018-06-17T18:17:31.656Z,3.17
2018-06-17T18:20:00.099Z,2.77
2018-06-17T18:22:28.539Z,2.47
2018-06-17T18:25:02.439Z,3.00
2018-06-17T18:27:36.122Z,2.77
2018-06-17T18:31:13.077Z,3.50
2018-06-17T18:33:46.912Z,3.27
2018-06-17T18:36:16.402Z,2.40
2018-06-17T18:38:46.087Z,3.00
2018-06-17T18:41:15.374Z,3.60
2018-06-17T18:43:43.782Z,3.20
2018-06-17T18:46:13.294Z,3.83
2018-06-17T18:48:41.808Z,3.37
2018-06-17T18:51:10.285Z,3.63
2018-06-17T18:53:38.629Z,2.77
2018-06-17T18:56:07.076Z,3.23
2018-06-17T18:58:35.392Z,3.57
2018-06-17T19:01:03.876Z,3.50
2018-06-17T19:03:32.253Z,3.00
2018-06-17T19:06:00.682Z,2.80
2018-06-17T19:08:34.327Z,3.43
2018-06-17T19:11:07.904Z,2.83
2018-06-17T19:13:41.625Z,2.47
2018-06-17T19:16:15.880Z,3.77
2018-06-17T19:18:44.225Z,3.23
2018-06-17T19:21:12.659Z,3.87
2018-06-17T19:23:41.044Z,3.70
2018-06-17T19:26:09.378Z,3.50
2018-06-17T19:28:37.859Z,3.10
2018-06-17T19:31:06.216Z,2.87
2018-06-17T19:33:34.578Z,2.90
2018-06-17T19:36:03.015Z,3.77
2018-06-17T19:38:31.380Z,3.13
2018-06-17T19:40:59.878Z,3.10
2018-06-17T19:43:28.340Z,3.47
2018-06-17T19:45:56.761Z,3.30
2018-06-17T19:48:25.254Z,3.07
2018-06-17T19:50:58.811Z,2.93
2018-06-17T19:53:32.407Z,3.00
2018-06-17T19:56:05.934Z,3.03
2018-06-17T19:58:39.746Z,3.03
2018-06-17T20:01:08.144Z,3.27
2018-06-17T20:03:42.154Z,3.30
2018-06-17T20:06:10.849Z,3.60
2018-06-17T20:08:39.327Z,3.13
2018-06-17T20:11:07.788Z,3.73
2018-06-17T20:13:36.201Z,3.77
2018-06-17T20:16:04.640Z,3.80
2018-06-17T20:18:33.090Z,3.60
2018-06-17T20:21:01.526Z,4.00
2018-06-17T20:23:29.940Z,3.43
2018-06-17T20:25:58.336Z,3.80
2018-06-17T20:28:26.807Z,3.10
2018-06-17T20:30:59.430Z,3.53
2018-06-17T20:33:33.092Z,4.00
2018-06-17T20:36:06.704Z,3.70
2018-06-17T20:38:40.493Z,3.10
2018-06-17T20:41:14.054Z,3.60
2018-06-17T20:43:49.224Z,4.10
2018-06-17T20:46:17.945Z,3.27
2018-06-17T20:48:46.884Z,3.90
2018-06-17T20:51:15.429Z,3.30
2018-06-17T20:53:43.872Z,4.67
2018-06-17T20:56:12.300Z,3.60
2018-06-17T20:58:40.739Z,3.67
2018-06-17T21:01:09.266Z,3.17
2018-06-17T21:03:37.777Z,4.37
2018-06-17T21:06:06.209Z,6.17
2018-06-17T21:08:34.581Z,4.33
2018-06-17T21:11:02.967Z,3.47
2018-06-17T21:13:31.463Z,3.73
2018-06-17T21:15:59.847Z,3.77
2018-06-17T21:18:33.491Z,3.40
2018-06-17T21:21:07.097Z,3.43
2018-06-17T21:23:40.806Z,3.90
2018-06-17T21:26:14.392Z,4.27
2018-06-17T21:28:42.785Z,3.67
2018-06-17T21:31:12.126Z,3.93
2018-06-17T21:33:40.513Z,4.13
2018-06-17T21:36:08.979Z,3.73
2018-06-17T21:38:37.339Z,3.30
2018-06-17T21:41:05.664Z,3.20
2018-06-17T21:43:34.117Z,3.67
2018-06-17T21:46:02.603Z,3.20
2018-06-17T21:48:31.094Z,4.40
2018-06-17T21:50:59.385Z,3.70
2018-06-17T21:53:27.749Z,3.53
2018-06-17T21:55:56.154Z,3.40
2018-06-17T21:58:29.922Z,3.50
2018-06-17T22:00:58.371Z,3.90
2018-06-17T22:03:26.672Z,4.13
2018-06-17T22:05:55.098Z,3.20
2018-06-17T22:08:28.780Z,3.23
2018-06-17T22:11:02.418Z,3.40
2018-06-17T22:15:38.006Z,3.07
2018-06-17T22:18:06.342Z,3.60
2018-06-17T22:20:34.736Z,3.30
2018-06-17T22:23:03.158Z,2.83
2018-06-17T22:25:31.533Z,3.97
2018-06-17T22:27:59.940Z,3.47
2018-06-17T22:30:28.369Z,3.40
2018-06-17T22:32:56.738Z,4.13
2018-06-17T22:35:25.184Z,3.13
2018-06-17T22:37:53.572Z,3.80
2018-06-17T22:40:21.950Z,3.90
2018-06-17T22:42:50.296Z,3.80
2018-06-17T22:45:18.649Z,3.20
2018-06-17T22:47:52.286Z,3.70
2018-06-17T22:50:20.698Z,3.60
2018-06-17T22:52:54.614Z,4.07
2018-06-17T22:55:22.986Z,4.70
2018-06-17T22:57:56.805Z,3.90
2018-06-17T23:00:30.599Z,3.97
2018-06-17T23:03:04.273Z,4.07
2018-06-17T23:05:37.915Z,3.80
2018-06-17T23:08:11.701Z,3.90
2018-06-17T23:10:40.152Z,3.90
2018-06-17T23:13:08.566Z,3.95
2018-06-17T23:15:36.969Z,4.50
2018-06-17T23:18:05.328Z,3.65
2018-06-17T23:20:33.744Z,4.20
2018-06-17T23:23:02.139Z,4.63
2018-06-17T23:25:30.593Z,4.15
2018-06-17T23:27:59.065Z,3.73
2018-06-17T23:30:27.592Z,3.98
2018-06-17T23:32:55.992Z,3.73
2018-06-17T23:35:24.368Z,4.33
2018-06-17T23:37:52.771Z,3.83
2018-06-17T23:40:21.172Z,4.05
2018-06-17T23:42:49.504Z,3.72
2018-06-17T23:45:17.885Z,3.87
2018-06-17T23:49:56.630Z,5.20
2018-06-17T23:52:30.271Z,3.98
2018-06-17T23:55:03.816Z,5.93
2018-06-17T23:57:32.248Z,3.37
